Puunene, Hawaii
Current Conditions -  °F | °C
As of 7:54 AM on Friday 31 Oct 2014 (Local Time) from PHOG Reporting Station
Few Clouds Few Clouds  
Wind Chill: 80°   Ceiling: Unl
Heat Index: 83°   Visibility: 10mi
Dew Point: 69°   Wind: 18mph
Humidity: 69%   Direction: 40°NE
Pressure: 30.06"   Gusts: NA
Location:  20.86°N, 156.45°W
Report Text: PHOG 311754Z 04016KT 10SM FEW045 27/21 A3006 RMK AO2 SLP183 T02670206 10267 20233 53019
Loading
Personal Weather Stations






























Interactive Weather Map
Tropical Storm Tracking
New forecast layout! Learn more

10-Day Weather Forecast

Advertisements
Track Severe Weather on mobile